»·PEaware :: N791J KSNA-KBUR

N791J :: KSNA-KBUR

FLIGHT INFORMATION

Flight Status: Arrived
Operator: Privately registered:
United States
More flights under this callsign
Pilot: Neil S. (18905)
Aircraft: CESSNA 172 SKYHAWK
(C172)
More flights by this aircraft type
Origin: KSNA John Wayne-Orange Co
United States
Destination: KBUR Bob Hope-Burbank
United States
More flights between these airports :: More routes between these airports
Route: +SLI V23 POPPR SMO123R SMO SMO311R SILEX
File this flight plan on PilotEdge
Remarks:
Altitude:
(Current/Filed)
4,000ft
Speed:
(Current/Filed)
110kts
Departed: 16-May-18 02:16 PM
Arrived: 16-May-18 03:01 PM
Distance/Time
Traveled:
40nm/0:45
Distance/Time
To Go:
Arrived

Flight Plot

Page will automatically refresh every two minutes.


Map Options




Map Legend


Flown Route
Filed Route
Departure Airport
Arrival Airport
Navaid (VOR, NDB)
Fix

Horizontal Profiles

Position Reports

Time Latitude Longitude Heading Altitude Ground
Speed
16-May-18 13:55 33.675246 -117.871611 38 59ft 0kts
16-May-18 13:56 33.675246 -117.871611 38 59ft 0kts
16-May-18 13:57 33.675246 -117.871611 38 59ft 0kts
16-May-18 13:58 33.675246 -117.871611 38 59ft 0kts
16-May-18 13:59 33.675246 -117.871611 38 59ft 0kts
16-May-18 14:00 33.675246 -117.871611 38 59ft 0kts
16-May-18 14:01 33.675246 -117.871611 38 59ft 0kts
16-May-18 14:02 33.675246 -117.871611 38 59ft 0kts
16-May-18 14:03 33.675246 -117.871611 38 59ft 0kts
16-May-18 14:04 33.675246 -117.871611 38 59ft 0kts
16-May-18 14:05 33.675246 -117.871611 38 59ft 0kts
16-May-18 14:06 33.675246 -117.871611 38 59ft 0kts
16-May-18 14:07 33.675246 -117.871611 38 59ft 0kts
16-May-18 14:08 33.675246 -117.871611 38 59ft 0kts
16-May-18 14:09 33.675246 -117.871611 38 59ft 0kts
16-May-18 14:10 33.675246 -117.871611 38 59ft 0kts
16-May-18 14:11 33.675246 -117.871611 38 59ft 0kts
16-May-18 14:12 33.675272 -117.871582 53 59ft 0kts
16-May-18 14:13 33.677221 -117.869364 27 59ft 19kts
16-May-18 14:14 33.681230 -117.866463 114 59ft 0kts
16-May-18 14:15 33.681230 -117.866463 114 59ft 0kts
16-May-18 14:16 33.679133 -117.866669 207 59ft 45kts
16-May-18 14:17 33.661372 -117.880599 240 618ft 81kts
16-May-18 14:18 33.651061 -117.902798 241 1297ft 72kts
16-May-18 14:19 33.641780 -117.923063 241 1984ft 67kts
16-May-18 14:20 33.633487 -117.941281 241 2659ft 57kts
16-May-18 14:21 33.624672 -117.955971 248 3205ft 62kts
16-May-18 14:22 33.633656 -117.977583 310 3736ft 86kts
16-May-18 14:23 33.643909 -118.003055 290 4245ft 87kts
16-May-18 14:24 33.657357 -118.035874 291 3989ft 112kts
16-May-18 14:25 33.668993 -118.068316 286 3987ft 99kts
16-May-18 14:26 33.679231 -118.098213 286 3991ft 96kts
16-May-18 14:27 33.689371 -118.127759 286 3993ft 95kts
16-May-18 14:28 33.706776 -118.152300 313 3993ft 101kts
16-May-18 14:29 33.728437 -118.173825 313 3993ft 101kts
16-May-18 14:30 33.750066 -118.195464 313 3992ft 101kts
16-May-18 14:31 33.771736 -118.217150 313 3999ft 101kts
16-May-18 14:32 33.793873 -118.239304 313 3999ft 104kts
16-May-18 14:33 33.816428 -118.261892 313 3999ft 107kts
16-May-18 14:34 33.839451 -118.284998 313 3999ft 108kts
16-May-18 14:35 33.862707 -118.308301 314 3999ft 109kts
16-May-18 14:36 33.885925 -118.331569 313 4000ft 108kts
16-May-18 14:37 33.909072 -118.354888 313 4001ft 108kts
16-May-18 14:38 33.932110 -118.378090 314 4001ft 107kts
16-May-18 14:39 33.954923 -118.401066 315 3998ft 106kts
16-May-18 14:40 33.977440 -118.423724 315 3997ft 105kts
16-May-18 14:41 33.999585 -118.446177 315 3997ft 104kts
16-May-18 14:42 34.021701 -118.468820 315 3998ft 104kts
16-May-18 14:43 34.044052 -118.490944 321 3999ft 105kts
16-May-18 14:44 34.069357 -118.508793 330 4000ft 106kts
16-May-18 14:45 34.095722 -118.524702 320 4000ft 105kts
16-May-18 14:46 34.117369 -118.546181 316 4000ft 103kts
16-May-18 14:47 34.140818 -118.566443 325 3998ft 104kts
16-May-18 14:48 34.161107 -118.590486 310 3996ft 102kts
16-May-18 14:49 34.180103 -118.615979 310 3994ft 102kts
16-May-18 14:50 34.198943 -118.641457 310 3993ft 101kts
16-May-18 14:51 34.220824 -118.647887 55 3990ft 113kts
16-May-18 14:52 34.210005 -118.613564 121 3990ft 114kts
16-May-18 14:53 34.193184 -118.581639 121 3991ft 112kts
16-May-18 14:54 34.187446 -118.547555 63 3939ft 112kts
16-May-18 14:55 34.199904 -118.512937 90 3449ft 113kts
16-May-18 14:56 34.199255 -118.475853 89 2989ft 103kts
16-May-18 14:57 34.198865 -118.447393 88 2974ft 73kts
16-May-18 14:58 34.198559 -118.421322 89 2451ft 90kts
16-May-18 14:59 34.198244 -118.396130 90 1468ft 72kts
16-May-18 15:00 34.198036 -118.377349 88 954ft 61kts
16-May-18 15:01 34.197749 -118.355943 90 780ft 25kts
16-May-18 15:02 34.198513 -118.355315 348 780ft 0kts
16-May-18 15:03 34.198519 -118.355316 347 780ft 0kts
16-May-18 15:04 34.198831 -118.356359 271 780ft 14kts
16-May-18 15:05 34.203643 -118.359225 346 780ft 23kts
16-May-18 15:06 34.208762 -118.360652 347 780ft 13kts
16-May-18 15:07 34.212353 -118.361555 359 780ft 16kts

Navigation Log

Ident Type
1. KSNA Airport
2. SLI Navaid
3. POPPR Fix
4. SMO Navaid
5. SILEX Fix
6. KBUR Airport